createdAt,value
2023-01-23T00:01:36.509Z,2.88
2023-01-23T00:04:05.587Z,3.31
2023-01-23T00:06:33.427Z,3.05
2023-01-23T00:09:02.006Z,2.99
2023-01-23T00:11:32.061Z,2.99
2023-01-23T00:14:01.569Z,3.10
2023-01-23T00:16:32.374Z,3.14
2023-01-23T00:19:02.376Z,3.06
2023-01-23T00:21:30.988Z,3.20
2023-01-23T00:24:01.901Z,2.91
2023-01-23T00:26:32.654Z,3.10
2023-01-23T00:29:01.074Z,3.11
2023-01-23T00:31:30.789Z,3.08
2023-01-23T00:34:03.621Z,2.91
2023-01-23T00:36:33.062Z,2.99
2023-01-23T00:39:01.093Z,3.11
2023-01-23T00:41:29.746Z,2.94
2023-01-23T00:43:57.565Z,2.97
2023-01-23T00:46:25.413Z,3.03
2023-01-23T00:48:53.854Z,2.95
2023-01-23T00:51:23.420Z,3.00
2023-01-23T00:53:51.946Z,2.75
2023-01-23T00:56:20.176Z,3.18
2023-01-23T00:58:48.109Z,3.39
2023-01-23T01:01:17.861Z,3.27
2023-01-23T01:03:46.468Z,3.27
2023-01-23T01:06:14.401Z,3.29
2023-01-23T01:08:43.934Z,3.30
2023-01-23T01:11:11.759Z,3.37
2023-01-23T01:13:39.595Z,3.29
2023-01-23T01:16:09.176Z,3.28
2023-01-23T01:18:37.010Z,3.12
2023-01-23T01:21:09.162Z,3.28
2023-01-23T01:23:37.316Z,3.38
2023-01-23T01:26:07.943Z,3.26
2023-01-23T01:28:38.470Z,3.13
2023-01-23T01:31:08.651Z,3.18
2023-01-23T01:33:36.994Z,3.17
2023-01-23T01:36:10.007Z,3.16
2023-01-23T01:38:38.728Z,3.04
2023-01-23T01:41:08.774Z,2.89
2023-01-23T01:43:37.093Z,2.92
2023-01-23T01:46:12.741Z,2.74
2023-01-23T01:48:45.581Z,3.04
2023-01-23T01:51:20.377Z,3.07
2023-01-23T01:53:52.105Z,2.93
2023-01-23T01:56:22.320Z,2.99
2023-01-23T01:58:56.733Z,2.98
2023-01-23T02:01:24.985Z,3.17
2023-01-23T02:03:54.388Z,3.28
2023-01-23T02:06:22.391Z,2.94
2023-01-23T02:08:58.579Z,3.04
2023-01-23T02:11:27.663Z,3.15
2023-01-23T02:13:57.111Z,2.73
2023-01-23T02:16:29.831Z,3.04
2023-01-23T02:19:01.658Z,2.55
2023-01-23T02:21:30.709Z,2.79
2023-01-23T02:24:11.776Z,2.86
2023-01-23T02:26:44.431Z,2.58
2023-01-23T02:29:13.327Z,2.41
2023-01-23T02:31:43.314Z,2.60
2023-01-23T02:34:13.592Z,2.94
2023-01-23T02:36:45.797Z,2.92
2023-01-23T02:39:16.116Z,2.82
2023-01-23T02:41:48.321Z,2.86
2023-01-23T02:44:19.121Z,2.36
2023-01-23T02:46:47.427Z,2.82
2023-01-23T02:49:15.543Z,2.97
2023-01-23T02:51:43.330Z,3.06
2023-01-23T02:54:11.562Z,3.05
2023-01-23T02:56:39.740Z,3.03
2023-01-23T02:59:26.657Z,3.06
2023-01-23T03:01:54.579Z,3.05
2023-01-23T03:04:22.455Z,3.02
2023-01-23T03:06:51.002Z,3.11
2023-01-23T03:09:19.781Z,3.16
2023-01-23T03:11:48.845Z,3.08
2023-01-23T03:14:20.151Z,3.12
2023-01-23T03:16:51.785Z,2.99
2023-01-23T03:19:23.029Z,3.02
2023-01-23T03:21:52.331Z,2.94
2023-01-23T03:24:21.529Z,2.62
2023-01-23T03:26:50.848Z,2.79
2023-01-23T03:29:40.288Z,2.77
2023-01-23T03:32:08.957Z,2.39
2023-01-23T03:34:37.059Z,2.46
2023-01-23T03:37:08.310Z,2.37
2023-01-23T03:39:58.852Z,2.32
2023-01-23T03:42:29.920Z,2.20
2023-01-23T03:44:59.058Z,2.32
2023-01-23T03:47:27.324Z,1.94
2023-01-23T03:49:55.772Z,1.52
2023-01-23T03:52:23.795Z,1.36
2023-01-23T03:54:53.319Z,1.36
2023-01-23T03:57:21.627Z,1.22
2023-01-23T03:59:49.807Z,1.12
2023-01-23T04:02:19.912Z,0.55
2023-01-23T04:04:49.117Z,0.76
2023-01-23T04:07:17.163Z,0.92
2023-01-23T04:09:45.439Z,1.15
2023-01-23T04:12:14.245Z,0.48
2023-01-23T04:14:42.839Z,0.80
2023-01-23T04:17:12.497Z,1.12
2023-01-23T04:19:42.546Z,0.97
2023-01-23T04:22:10.944Z,1.07
2023-01-23T04:24:39.080Z,1.28
2023-01-23T04:27:07.607Z,1.60
2023-01-23T04:29:35.648Z,1.79
2023-01-23T04:32:04.834Z,2.12
2023-01-23T04:34:33.977Z,2.39
2023-01-23T04:37:03.808Z,2.43
2023-01-23T04:39:33.505Z,2.58
2023-01-23T04:42:02.020Z,2.24
2023-01-23T04:44:29.904Z,2.56
2023-01-23T04:46:58.311Z,2.19
2023-01-23T04:49:26.474Z,2.38
2023-01-23T04:51:55.461Z,2.44
2023-01-23T04:54:24.693Z,2.59
2023-01-23T04:56:53.121Z,2.51
2023-01-23T04:59:22.301Z,2.33
2023-01-23T05:01:54.299Z,2.47
2023-01-23T05:04:22.306Z,2.56
2023-01-23T05:06:51.409Z,2.50
2023-01-23T05:09:19.546Z,2.50
2023-01-23T05:11:52.269Z,2.50
2023-01-23T05:14:22.157Z,2.28
2023-01-23T05:16:50.295Z,2.66
2023-01-23T05:19:18.954Z,2.57
2023-01-23T05:21:46.983Z,2.56
2023-01-23T05:24:14.936Z,2.50
2023-01-23T05:26:44.347Z,2.32
2023-01-23T05:29:13.758Z,2.56
2023-01-23T05:31:41.701Z,2.39
2023-01-23T05:34:10.077Z,2.44
2023-01-23T05:36:38.145Z,2.30
2023-01-23T05:39:06.227Z,2.26
2023-01-23T05:41:36.226Z,2.27
2023-01-23T05:44:04.184Z,2.44
2023-01-23T05:46:33.769Z,2.06
2023-01-23T05:49:02.231Z,1.66
2023-01-23T05:51:33.887Z,2.23
2023-01-23T05:54:03.368Z,1.99
2023-01-23T05:56:31.456Z,2.20
2023-01-23T05:58:59.508Z,2.16
2023-01-23T06:01:28.404Z,2.09
2023-01-23T06:03:57.943Z,2.02
2023-01-23T06:06:27.583Z,2.23
2023-01-23T06:08:58.675Z,2.26
2023-01-23T06:11:27.875Z,2.05
2023-01-23T06:13:58.094Z,2.16
2023-01-23T06:16:28.348Z,2.22
2023-01-23T06:18:57.769Z,2.29
2023-01-23T06:21:25.771Z,2.27
2023-01-23T06:23:54.681Z,2.33
2023-01-23T06:26:23.145Z,2.39
2023-01-23T06:28:51.447Z,2.23
2023-01-23T06:31:20.243Z,2.27
2023-01-23T06:33:52.349Z,2.37
2023-01-23T06:36:23.066Z,2.37
2023-01-23T06:38:51.895Z,2.44
2023-01-23T06:41:20.634Z,2.61
2023-01-23T06:43:49.575Z,2.51
2023-01-23T06:46:17.631Z,2.51
2023-01-23T06:48:46.286Z,2.63
2023-01-23T06:51:15.051Z,2.54
2023-01-23T06:53:47.162Z,2.64
2023-01-23T06:56:15.955Z,2.74
2023-01-23T06:58:47.532Z,2.74
2023-01-23T07:01:18.894Z,2.46
2023-01-23T07:03:47.974Z,2.72
2023-01-23T07:06:17.401Z,2.71
2023-01-23T07:08:47.742Z,2.86
2023-01-23T07:11:16.021Z,2.93
2023-01-23T07:13:44.209Z,2.92
2023-01-23T07:16:12.877Z,2.81
2023-01-23T07:18:41.020Z,3.00
2023-01-23T07:21:09.423Z,2.94
2023-01-23T07:23:38.330Z,3.05
2023-01-23T07:26:09.755Z,3.10
2023-01-23T07:28:38.560Z,3.08
2023-01-23T07:31:07.622Z,3.00
2023-01-23T07:33:38.317Z,3.10
2023-01-23T07:36:08.085Z,3.31
2023-01-23T07:38:37.032Z,3.25
2023-01-23T07:41:06.583Z,3.22
2023-01-23T07:43:37.522Z,3.23
2023-01-23T07:46:15.147Z,3.16
2023-01-23T07:48:43.270Z,2.59
2023-01-23T07:51:12.421Z,3.05
2023-01-23T07:53:40.825Z,2.99
2023-01-23T07:56:09.663Z,2.83
2023-01-23T07:58:39.750Z,2.75
2023-01-23T08:01:11.939Z,2.72
2023-01-23T08:03:41.046Z,2.93
2023-01-23T08:06:14.500Z,2.92
2023-01-23T08:08:43.714Z,2.88
2023-01-23T08:11:21.377Z,3.11
2023-01-23T08:13:52.782Z,3.01
2023-01-23T08:16:21.594Z,3.10
2023-01-23T08:18:50.063Z,2.89
2023-01-23T08:21:19.233Z,3.03
2023-01-23T08:23:47.656Z,3.14
2023-01-23T08:26:18.919Z,3.14
2023-01-23T08:28:50.075Z,2.94
2023-01-23T08:31:20.990Z,2.84
2023-01-23T08:33:50.062Z,2.87
2023-01-23T08:36:18.453Z,2.70
2023-01-23T08:38:46.862Z,3.09
2023-01-23T08:41:15.765Z,3.07
2023-01-23T08:43:44.687Z,3.07
2023-01-23T08:46:13.390Z,3.19
2023-01-23T08:48:43.796Z,3.35
2023-01-23T08:51:14.255Z,3.56
2023-01-23T08:53:42.669Z,3.52
2023-01-23T08:56:17.309Z,3.81
2023-01-23T08:58:46.265Z,3.98
2023-01-23T09:01:15.537Z,4.14
2023-01-23T09:03:46.766Z,3.18
2023-01-23T09:06:16.607Z,3.12
2023-01-23T09:08:45.097Z,3.07
2023-01-23T09:11:15.460Z,3.31
2023-01-23T09:13:44.140Z,3.61
2023-01-23T09:16:12.467Z,4.01
2023-01-23T09:18:41.282Z,4.81
2023-01-23T09:21:12.835Z,4.97
2023-01-23T09:23:41.803Z,4.78
2023-01-23T09:26:11.693Z,5.18
2023-01-23T09:28:43.129Z,5.24
2023-01-23T09:31:13.585Z,4.37
2023-01-23T09:33:42.814Z,4.92
2023-01-23T09:36:13.816Z,3.97
2023-01-23T09:38:42.827Z,3.59
2023-01-23T09:41:18.377Z,3.89
2023-01-23T09:43:54.419Z,3.72
2023-01-23T09:46:29.490Z,3.82
2023-01-23T09:49:04.668Z,3.33
2023-01-23T09:51:46.496Z,3.29
2023-01-23T09:54:26.863Z,3.21
2023-01-23T09:56:57.795Z,3.54
2023-01-23T09:59:40.367Z,3.71
2023-01-23T10:02:20.437Z,3.76
2023-01-23T10:04:51.408Z,4.45
2023-01-23T10:07:37.500Z,4.30
2023-01-23T10:10:29.691Z,4.86
2023-01-23T10:13:09.817Z,5.21
2023-01-23T10:15:57.431Z,5.12
2023-01-23T10:18:28.462Z,4.90
2023-01-23T10:21:12.094Z,5.09
2023-01-23T10:23:55.947Z,5.08
2023-01-23T10:26:31.708Z,4.66
2023-01-23T10:29:13.167Z,4.75
2023-01-23T10:31:46.749Z,4.92
2023-01-23T10:34:22.298Z,4.61
2023-01-23T10:37:04.502Z,4.42
2023-01-23T10:39:47.770Z,4.47
2023-01-23T10:42:24.324Z,4.64
2023-01-23T10:44:54.152Z,4.84
2023-01-23T10:47:33.241Z,4.69
2023-01-23T10:50:04.924Z,4.84
2023-01-23T10:52:39.781Z,4.82
2023-01-23T10:55:31.906Z,4.88
2023-01-23T10:58:04.151Z,5.18
2023-01-23T11:00:40.221Z,5.73
2023-01-23T11:03:30.814Z,5.21
2023-01-23T11:06:04.547Z,5.34
2023-01-23T11:08:37.419Z,5.57
2023-01-23T11:11:27.309Z,5.15
2023-01-23T11:14:09.903Z,5.33
2023-01-23T11:16:45.074Z,5.50
2023-01-23T11:19:26.954Z,5.55
2023-01-23T11:21:58.833Z,5.17
2023-01-23T11:24:41.083Z,4.90
2023-01-23T11:27:24.435Z,4.95
2023-01-23T11:30:13.424Z,4.55
2023-01-23T11:32:51.632Z,4.43
2023-01-23T11:35:27.102Z,4.59
2023-01-23T11:38:03.102Z,4.93
2023-01-23T11:40:33.573Z,4.91
2023-01-23T11:43:13.135Z,4.75
2023-01-23T11:45:52.475Z,4.76
2023-01-23T11:48:42.086Z,5.13
2023-01-23T11:51:29.825Z,5.11
2023-01-23T11:54:12.014Z,5.38
2023-01-23T11:56:56.443Z,5.36
2023-01-23T11:59:47.965Z,5.69
2023-01-23T12:02:45.446Z,5.34
2023-01-23T12:05:48.627Z,5.78
2023-01-23T12:08:30.789Z,5.53
2023-01-23T12:11:13.402Z,5.61
2023-01-23T12:14:09.567Z,5.69
2023-01-23T12:16:54.691Z,5.35
2023-01-23T12:19:39.472Z,5.25
2023-01-23T12:22:17.600Z,5.12
2023-01-23T12:24:59.478Z,5.21
2023-01-23T12:27:38.287Z,5.19
2023-01-23T12:30:34.849Z,5.13
2023-01-23T12:33:20.716Z,5.30
2023-01-23T12:35:59.180Z,5.18
2023-01-23T12:38:35.108Z,4.78
2023-01-23T12:41:22.474Z,4.67
2023-01-23T12:43:57.042Z,4.69
2023-01-23T12:46:31.162Z,4.86
2023-01-23T12:49:15.439Z,4.74
2023-01-23T12:51:49.943Z,4.99
2023-01-23T12:54:33.187Z,4.93
2023-01-23T12:57:04.010Z,4.80
2023-01-23T12:59:46.723Z,4.80
2023-01-23T13:02:23.356Z,4.77
2023-01-23T13:05:18.238Z,4.57
2023-01-23T13:07:56.109Z,4.77
2023-01-23T13:11:13.356Z,4.79
2023-01-23T13:13:46.400Z,4.43
2023-01-23T13:16:17.507Z,4.73
2023-01-23T13:19:14.538Z,4.87
2023-01-23T13:22:09.295Z,4.68
2023-01-23T13:25:15.786Z,4.70
2023-01-23T13:27:48.802Z,4.97
2023-01-23T13:30:42.411Z,4.98
2023-01-23T13:34:10.237Z,5.01
2023-01-23T13:36:46.120Z,4.67
2023-01-23T13:39:29.718Z,4.96
2023-01-23T13:42:38.678Z,5.10
2023-01-23T13:45:27.601Z,5.25
2023-01-23T14:21:30.335Z,3.94
2023-01-23T14:24:05.078Z,3.76
2023-01-23T14:26:36.345Z,3.89
2023-01-23T14:29:18.197Z,3.55
2023-01-23T14:31:47.680Z,3.54
2023-01-23T14:34:20.390Z,3.49
2023-01-23T14:36:52.863Z,3.50
2023-01-23T14:39:25.029Z,3.37
2023-01-23T14:41:59.067Z,3.40
2023-01-23T14:44:32.361Z,3.16
2023-01-23T14:47:04.211Z,3.30
2023-01-23T14:49:37.694Z,3.27
2023-01-23T14:52:08.227Z,3.33
2023-01-23T14:54:37.996Z,3.21
2023-01-23T14:57:10.841Z,3.25
2023-01-23T14:59:41.524Z,3.38
2023-01-23T15:02:28.240Z,3.25
2023-01-23T15:05:17.626Z,3.20
2023-01-23T15:07:48.458Z,3.12
2023-01-23T15:10:20.554Z,3.15
2023-01-23T15:12:52.075Z,3.06
2023-01-23T15:15:24.161Z,2.91
2023-01-23T15:17:54.278Z,3.06
2023-01-23T15:20:32.879Z,2.93
2023-01-23T15:23:22.535Z,2.85
2023-01-23T15:26:12.467Z,2.79
2023-01-23T15:28:43.700Z,2.78
2023-01-23T15:31:38.324Z,2.61
2023-01-23T15:34:22.705Z,2.74
2023-01-23T15:36:54.814Z,2.71
2023-01-23T15:39:27.855Z,2.71
2023-01-23T15:41:59.979Z,2.66
2023-01-23T15:44:32.556Z,2.64
2023-01-23T15:47:05.375Z,2.53
2023-01-23T15:49:38.460Z,2.49
2023-01-23T15:52:20.700Z,2.55
2023-01-23T15:54:50.782Z,2.53
2023-01-23T15:57:20.539Z,2.55
2023-01-23T15:59:51.471Z,2.48
2023-01-23T16:02:33.547Z,2.48
2023-01-23T16:05:04.299Z,2.53
2023-01-23T16:07:36.567Z,2.53
2023-01-23T16:10:09.434Z,2.53
2023-01-23T16:12:43.593Z,2.44
2023-01-23T16:15:17.452Z,2.33
2023-01-23T16:17:47.053Z,2.53
2023-01-23T16:20:16.893Z,2.33
2023-01-23T16:22:51.689Z,2.33
2023-01-23T16:25:38.017Z,2.35
2023-01-23T16:28:14.768Z,2.33
2023-01-23T16:30:43.566Z,2.33
2023-01-23T16:33:13.110Z,2.32
2023-01-23T16:35:48.602Z,2.34
2023-01-23T16:38:22.665Z,2.20
2023-01-23T16:40:53.791Z,2.25
2023-01-23T16:43:23.464Z,2.17
2023-01-23T16:45:56.136Z,2.16
2023-01-23T16:48:27.727Z,2.07
2023-01-23T16:51:00.967Z,2.11
2023-01-23T16:53:33.094Z,2.04
2023-01-23T16:56:03.736Z,2.10
2023-01-23T16:58:36.819Z,2.13
2023-01-23T17:01:10.394Z,1.98
2023-01-23T17:03:41.985Z,1.95
2023-01-23T17:06:15.764Z,1.95
2023-01-23T17:08:45.391Z,1.97
2023-01-23T17:11:21.942Z,2.12
2023-01-23T17:13:52.408Z,2.07
2023-01-23T17:16:27.428Z,2.04
2023-01-23T17:18:59.261Z,2.09
2023-01-23T17:21:33.209Z,2.12
2023-01-23T17:24:04.421Z,2.10
2023-01-23T17:26:33.056Z,2.04
2023-01-23T17:29:01.262Z,2.00
2023-01-23T17:31:32.951Z,2.17
2023-01-23T17:34:01.613Z,2.15
2023-01-23T17:36:29.750Z,2.12
2023-01-23T17:39:00.473Z,2.27
2023-01-23T17:41:32.207Z,2.24
2023-01-23T17:44:01.182Z,2.33
2023-01-23T17:46:33.002Z,2.05
2023-01-23T17:49:01.852Z,2.20
2023-01-23T17:51:30.046Z,2.11
2023-01-23T17:53:59.040Z,2.15
2023-01-23T17:56:27.459Z,2.13
2023-01-23T17:58:57.118Z,2.10
2023-01-23T18:01:26.836Z,2.13
2023-01-23T18:03:56.047Z,2.06
2023-01-23T18:06:24.252Z,2.09
2023-01-23T18:08:52.377Z,2.16
2023-01-23T18:11:22.959Z,2.16
2023-01-23T18:14:16.779Z,2.24
2023-01-23T18:16:48.249Z,2.13
2023-01-23T18:19:19.135Z,2.02
2023-01-23T18:21:49.811Z,2.10
2023-01-23T18:24:24.872Z,2.04
2023-01-23T18:26:59.472Z,2.08
2023-01-23T18:29:36.814Z,2.11
2023-01-23T18:32:29.173Z,1.99
2023-01-23T18:35:03.998Z,2.06
2023-01-23T18:37:44.898Z,2.09
2023-01-23T18:40:22.201Z,2.05
2023-01-23T18:42:56.965Z,2.12
2023-01-23T18:45:28.092Z,1.99
2023-01-23T18:47:57.651Z,2.04
2023-01-23T18:50:27.125Z,2.13
2023-01-23T18:53:17.462Z,2.07
2023-01-23T18:55:51.940Z,2.05
2023-01-23T18:58:32.621Z,2.13
2023-01-23T19:01:13.441Z,1.89
2023-01-23T19:03:44.952Z,2.01
2023-01-23T19:06:20.845Z,1.93
2023-01-23T19:08:50.764Z,1.97
2023-01-23T19:11:32.651Z,1.94
2023-01-23T19:14:12.720Z,1.99
2023-01-23T19:16:46.887Z,1.87
2023-01-23T19:19:25.065Z,1.93
2023-01-23T19:21:53.653Z,1.93
2023-01-23T19:24:22.145Z,1.97
2023-01-23T19:26:51.907Z,1.95
2023-01-23T19:29:22.723Z,2.02
2023-01-23T19:32:09.203Z,2.23
2023-01-23T19:34:37.256Z,2.13
2023-01-23T19:37:05.852Z,2.11
2023-01-23T19:39:34.258Z,2.16
2023-01-23T19:42:02.319Z,2.05
2023-01-23T19:44:31.310Z,2.06
2023-01-23T19:47:03.500Z,2.10
2023-01-23T19:49:33.264Z,2.14
2023-01-23T19:52:01.983Z,2.14
2023-01-23T19:54:29.933Z,2.13
2023-01-23T19:56:58.401Z,2.15
2023-01-23T19:59:27.302Z,2.24
2023-01-23T20:01:55.593Z,2.19
2023-01-23T20:04:25.874Z,2.18
2023-01-23T20:06:53.972Z,2.13
2023-01-23T20:09:22.832Z,2.07
2023-01-23T20:11:52.701Z,1.99
2023-01-23T20:14:22.248Z,2.00
2023-01-23T20:16:50.375Z,2.15
2023-01-23T20:19:20.070Z,1.98
2023-01-23T20:21:50.725Z,1.90
2023-01-23T20:24:19.209Z,1.95
2023-01-23T20:26:48.046Z,1.99
2023-01-23T20:29:16.651Z,1.94
2023-01-23T20:31:44.975Z,1.97
2023-01-23T20:34:13.492Z,1.83
2023-01-23T20:36:42.092Z,2.00
2023-01-23T20:39:12.310Z,1.89
2023-01-23T20:41:40.895Z,2.03
2023-01-23T20:44:09.447Z,2.10
2023-01-23T20:46:37.622Z,2.07
2023-01-23T20:49:06.473Z,2.13
2023-01-23T20:51:34.716Z,2.11
2023-01-23T20:54:01.881Z,2.04
2023-01-23T20:56:32.012Z,2.05
2023-01-23T20:59:17.852Z,2.09
2023-01-23T21:02:04.797Z,2.18
2023-01-23T21:04:34.520Z,2.17
2023-01-23T21:07:03.078Z,2.22
2023-01-23T21:09:31.859Z,2.19
2023-01-23T21:12:01.389Z,2.23
2023-01-23T21:14:29.968Z,2.24
2023-01-23T21:16:58.830Z,2.11
2023-01-23T21:19:27.675Z,1.95
2023-01-23T21:21:56.092Z,1.96
2023-01-23T21:24:25.282Z,2.00
2023-01-23T21:26:53.343Z,1.92
2023-01-23T21:29:22.833Z,1.80
2023-01-23T21:31:51.745Z,1.99
2023-01-23T21:34:20.213Z,2.07
2023-01-23T21:36:48.497Z,2.07
2023-01-23T21:39:18.191Z,1.98
2023-01-23T21:41:46.371Z,2.03
2023-01-23T21:44:14.923Z,2.08
2023-01-23T21:46:47.062Z,2.05
2023-01-23T21:49:15.711Z,2.11
2023-01-23T21:51:44.790Z,2.18
2023-01-23T21:54:13.381Z,2.11
2023-01-23T21:56:41.402Z,2.28
2023-01-23T21:59:09.282Z,2.24
2023-01-23T22:01:38.095Z,2.45
2023-01-23T22:04:09.655Z,2.31
2023-01-23T22:06:39.719Z,2.55
2023-01-23T22:09:09.331Z,2.42
2023-01-23T22:11:37.709Z,2.52
2023-01-23T22:14:06.373Z,2.54
2023-01-23T22:16:50.666Z,2.68
2023-01-23T22:19:25.548Z,2.70
2023-01-23T22:21:54.519Z,2.68
2023-01-23T22:24:23.424Z,2.59
2023-01-23T22:26:51.552Z,2.66
2023-01-23T22:29:19.758Z,2.67
2023-01-23T22:31:48.520Z,2.72
2023-01-23T22:34:16.668Z,2.53
2023-01-23T22:36:46.201Z,2.46
2023-01-23T22:39:16.534Z,2.52
2023-01-23T22:41:46.353Z,2.40
2023-01-23T22:44:14.729Z,2.40
2023-01-23T22:46:43.412Z,2.34
2023-01-23T22:49:11.431Z,2.34
2023-01-23T22:51:39.878Z,2.31
2023-01-23T22:54:09.378Z,2.25
2023-01-23T22:56:37.562Z,2.29
2023-01-23T22:59:05.810Z,2.24
2023-01-23T23:01:34.223Z,2.25
2023-01-23T23:04:02.333Z,2.19
2023-01-23T23:06:30.451Z,2.09
2023-01-23T23:08:58.865Z,2.17
2023-01-23T23:11:29.930Z,2.27
2023-01-23T23:13:59.373Z,2.38
2023-01-23T23:16:29.407Z,2.29
2023-01-23T23:18:58.404Z,2.28
2023-01-23T23:21:30.844Z,2.13
2023-01-23T23:24:00.633Z,2.31
2023-01-23T23:26:32.749Z,2.43
2023-01-23T23:29:01.342Z,2.53
2023-01-23T23:31:30.074Z,2.45
2023-01-23T23:33:58.614Z,2.47
2023-01-23T23:36:26.688Z,2.41
2023-01-23T23:38:55.025Z,2.33
2023-01-23T23:41:23.622Z,2.49
2023-01-23T23:43:53.136Z,2.35
2023-01-23T23:46:21.288Z,2.65
2023-01-23T23:48:49.806Z,2.32
2023-01-23T23:51:19.905Z,2.33
2023-01-23T23:53:49.920Z,2.37
2023-01-23T23:56:21.707Z,2.57
2023-01-23T23:58:50.389Z,2.44
